»·PEaware :: N4657 KLGB-KBFL

N4657 :: KLGB-KBFL

FLIGHT INFORMATION

Flight Status: Arrived
Operator: Privately registered:
United States
More flights under this callsign
Pilot: Daniel P. (20187)
Aircraft: PILATUS PC-12 EAGLE
(PC12)
More flights by this aircraft type
Origin: KLGB Long Beach
United States
Destination: KBFL Meadows
United States
More flights between these airports :: More routes between these airports
Route: +RV ANAHM1 LHS FASTO2
File this flight plan on PilotEdge
Remarks: Fasto 2 ARR
Altitude:
(Current/Filed)
10ft
Speed:
(Current/Filed)
200kts
Departed: 02-Oct-18 10:58 AM
Arrived: 02-Oct-18 11:51 AM
Distance/Time
Traveled:
107nm/0:53
Distance/Time
To Go:
Arrived

Flight Plot

Page will automatically refresh every two minutes.

Flight plan parsing failed; only flown route is shown


Map Options




Map Legend


Flown Route
Filed Route
Departure Airport
Arrival Airport
Navaid (VOR, NDB)
Fix

Horizontal Profiles

Position Reports

Time Latitude Longitude Heading Altitude Ground
Speed
02-Oct-18 09:51 33.819866 -118.145912 74 36ft 0kts
02-Oct-18 09:52 33.819866 -118.145912 74 36ft 0kts
02-Oct-18 09:53 33.819866 -118.145912 74 36ft 0kts
02-Oct-18 09:54 33.819866 -118.145912 74 36ft 0kts
02-Oct-18 09:55 33.819866 -118.145912 74 36ft 0kts
02-Oct-18 09:56 33.819866 -118.145912 74 36ft 0kts
02-Oct-18 09:57 33.819866 -118.145912 74 36ft 0kts
02-Oct-18 09:58 33.819866 -118.145912 74 36ft 0kts
02-Oct-18 09:59 33.819866 -118.145912 74 36ft 0kts
02-Oct-18 10:00 33.819866 -118.145912 74 36ft 0kts
02-Oct-18 10:01 33.819866 -118.145912 74 36ft 0kts
02-Oct-18 10:02 33.819866 -118.145912 74 36ft 0kts
02-Oct-18 10:03 33.819866 -118.145912 74 36ft 0kts
02-Oct-18 10:04 33.819866 -118.145912 74 36ft 0kts
02-Oct-18 10:05 33.819866 -118.145912 74 36ft 0kts
02-Oct-18 10:06 33.819866 -118.145912 74 36ft 0kts
02-Oct-18 10:07 33.819866 -118.145912 74 36ft 0kts
02-Oct-18 10:08 33.819866 -118.145912 74 36ft 0kts
02-Oct-18 10:09 33.819866 -118.145912 74 36ft 0kts
02-Oct-18 10:10 33.819866 -118.145912 74 36ft 0kts
02-Oct-18 10:11 33.819866 -118.145912 74 36ft 0kts
02-Oct-18 10:12 33.819866 -118.145912 74 36ft 0kts
02-Oct-18 10:13 33.819866 -118.145912 74 36ft 0kts
02-Oct-18 10:14 33.819866 -118.145912 74 36ft 0kts
02-Oct-18 10:15 33.819866 -118.145912 74 36ft 0kts
02-Oct-18 10:16 33.819866 -118.145912 74 36ft 0kts
02-Oct-18 10:17 33.819866 -118.145912 74 36ft 0kts
02-Oct-18 10:18 33.819866 -118.145912 74 36ft 0kts
02-Oct-18 10:19 33.819866 -118.145912 74 36ft 0kts
02-Oct-18 10:20 33.819866 -118.145912 74 36ft 0kts
02-Oct-18 10:21 33.819866 -118.145912 74 36ft 0kts
02-Oct-18 10:22 33.819866 -118.145912 74 36ft 0kts
02-Oct-18 10:23 33.819866 -118.145912 74 36ft 0kts
02-Oct-18 10:24 33.819866 -118.145912 74 36ft 0kts
02-Oct-18 10:25 33.819866 -118.145912 74 36ft 0kts
02-Oct-18 10:26 33.819866 -118.145912 74 36ft 0kts
02-Oct-18 10:27 33.819866 -118.145912 74 36ft 0kts
02-Oct-18 10:28 33.819866 -118.145912 74 36ft 0kts
02-Oct-18 10:29 33.819866 -118.145912 74 36ft 0kts
02-Oct-18 10:30 33.819866 -118.145912 74 36ft 0kts
02-Oct-18 10:31 33.819866 -118.145912 74 36ft 0kts
02-Oct-18 10:32 33.819866 -118.145912 74 36ft 0kts
02-Oct-18 10:33 33.819866 -118.145912 74 36ft 0kts
02-Oct-18 10:34 33.819866 -118.145912 74 36ft 0kts
02-Oct-18 10:35 33.819866 -118.145912 74 36ft 0kts
02-Oct-18 10:36 33.819866 -118.145912 74 36ft 0kts
02-Oct-18 10:37 33.819866 -118.145912 74 36ft 0kts
02-Oct-18 10:38 33.819866 -118.145912 74 36ft 0kts
02-Oct-18 10:39 33.819866 -118.145912 74 36ft 0kts
02-Oct-18 10:40 33.819866 -118.145912 74 36ft 0kts
02-Oct-18 10:41 33.819866 -118.145912 74 36ft 0kts
02-Oct-18 10:42 33.819866 -118.145912 74 36ft 0kts
02-Oct-18 10:43 33.819866 -118.145912 74 36ft 0kts
02-Oct-18 10:44 33.819866 -118.145912 74 36ft 0kts
02-Oct-18 10:45 33.819866 -118.145912 74 36ft 0kts
02-Oct-18 10:46 33.819866 -118.145912 74 36ft 0kts
02-Oct-18 10:47 33.819866 -118.145911 74 36ft 0kts
02-Oct-18 10:48 33.819866 -118.145911 74 36ft 0kts
02-Oct-18 10:49 33.819866 -118.145911 74 36ft 0kts
02-Oct-18 10:50 33.819866 -118.145911 74 36ft 0kts
02-Oct-18 10:51 33.819866 -118.145911 74 36ft 0kts
02-Oct-18 10:52 33.820134 -118.146798 320 37ft 9kts
02-Oct-18 10:53 33.821619 -118.144821 80 37ft 12kts
02-Oct-18 10:54 33.821950 -118.144020 58 37ft 0kts
02-Oct-18 10:55 33.821950 -118.144020 58 37ft 0kts
02-Oct-18 10:56 33.821950 -118.144020 58 37ft 0kts
02-Oct-18 10:57 33.821950 -118.144020 58 37ft 0kts
02-Oct-18 10:58 33.821950 -118.144020 58 37ft 0kts
02-Oct-18 10:59 33.822633 -118.143979 306 37ft 10kts
02-Oct-18 11:00 33.822698 -118.166722 267 698ft 117kts
02-Oct-18 11:01 33.798133 -118.196795 211 2200ft 164kts
02-Oct-18 11:02 33.754961 -118.228382 212 3004ft 203kts
02-Oct-18 11:03 33.704630 -118.265076 212 3003ft 218kts
02-Oct-18 11:04 33.653831 -118.301309 212 3001ft 209kts
02-Oct-18 11:05 33.603812 -118.336252 212 3002ft 208kts
02-Oct-18 11:06 33.554412 -118.341101 111 3105ft 215kts
02-Oct-18 11:07 33.566084 -118.275497 72 3915ft 196kts
02-Oct-18 11:08 33.582578 -118.214892 72 4802ft 190kts
02-Oct-18 11:09 33.615679 -118.167763 53 5706ft 188kts
02-Oct-18 11:10 33.648412 -118.115550 54 6005ft 211kts
02-Oct-18 11:11 33.683844 -118.058326 54 6003ft 219kts
02-Oct-18 11:12 33.719467 -118.000669 54 6003ft 221kts
02-Oct-18 11:13 33.755257 -117.942702 54 6003ft 222kts
02-Oct-18 11:14 33.791196 -117.884287 53 5999ft 224kts
02-Oct-18 11:15 33.827523 -117.825254 52 5993ft 224kts
02-Oct-18 11:16 33.871987 -117.784320 359 5996ft 216kts
02-Oct-18 11:17 33.930905 -117.784367 356 5983ft 213kts
02-Oct-18 11:18 33.988851 -117.785510 356 5988ft 212kts
02-Oct-18 11:19 34.021763 -117.835091 292 5999ft 210kts
02-Oct-18 11:20 34.057019 -117.884592 311 6735ft 187kts
02-Oct-18 11:21 34.090465 -117.929928 311 7542ft 190kts
02-Oct-18 11:22 34.124800 -117.974217 311 8282ft 207kts
02-Oct-18 11:23 34.165315 -118.024789 311 9069ft 215kts
02-Oct-18 11:24 34.206884 -118.075539 311 9851ft 215kts
02-Oct-18 11:25 34.249719 -118.127533 311 9994ft 233kts
02-Oct-18 11:26 34.294651 -118.182490 311 9996ft 238kts
02-Oct-18 11:27 34.340233 -118.238525 311 9993ft 237kts
02-Oct-18 11:28 34.385282 -118.294525 311 10003ft 233kts
02-Oct-18 11:29 34.429774 -118.350024 311 10007ft 232kts
02-Oct-18 11:30 34.474198 -118.405008 311 10002ft 233kts
02-Oct-18 11:31 34.519399 -118.460768 311 10002ft 233kts
02-Oct-18 11:32 34.569498 -118.508561 327 10005ft 236kts
02-Oct-18 11:33 34.626965 -118.544175 330 10044ft 237kts
02-Oct-18 11:34 34.680597 -118.575881 327 10087ft 238kts
02-Oct-18 11:35 34.728114 -118.623110 316 10104ft 239kts
02-Oct-18 11:36 34.775368 -118.671198 315 10099ft 223kts
02-Oct-18 11:37 34.819307 -118.715957 314 10101ft 198kts
02-Oct-18 11:38 34.856058 -118.753567 314 10102ft 191kts
02-Oct-18 11:39 34.894216 -118.792618 314 10102ft 189kts
02-Oct-18 11:40 34.933747 -118.833075 314 10095ft 190kts
02-Oct-18 11:41 34.980075 -118.861359 355 10149ft 199kts
02-Oct-18 11:42 35.036770 -118.866521 351 9751ft 221kts
02-Oct-18 11:43 35.100061 -118.875034 351 8796ft 238kts
02-Oct-18 11:44 35.158122 -118.884202 352 7905ft 233kts
02-Oct-18 11:45 35.214464 -118.894391 352 6873ft 186kts
02-Oct-18 11:46 35.262517 -118.904067 352 5858ft 169kts
02-Oct-18 11:47 35.302256 -118.929880 312 4664ft 169kts
02-Oct-18 11:48 35.338287 -118.956601 347 3402ft 148kts
02-Oct-18 11:49 35.370214 -118.982997 316 2092ft 133kts
02-Oct-18 11:50 35.393224 -119.009157 320 1384ft 108kts
02-Oct-18 11:51 35.415511 -119.034273 315 825ft 108kts
02-Oct-18 11:52 35.436129 -119.058926 318 489ft 77kts
02-Oct-18 11:53 35.438117 -119.060155 72 495ft 0kts
02-Oct-18 11:54 35.438117 -119.060155 72 495ft 0kts
02-Oct-18 11:55 35.438182 -119.059198 127 497ft 10kts
02-Oct-18 11:56 35.435880 -119.055346 47 495ft 12kts
02-Oct-18 11:57 35.436622 -119.054332 46 501ft 0kts
02-Oct-18 11:58 35.436622 -119.054332 46 501ft 0kts
02-Oct-18 11:59 35.436622 -119.054332 46 501ft 0kts
02-Oct-18 12:00 35.436622 -119.054332 46 501ft 0kts
02-Oct-18 12:01 35.436622 -119.054332 46 501ft 0kts
02-Oct-18 12:02 35.436622 -119.054332 46 501ft 0kts
02-Oct-18 12:03 35.436622 -119.054332 46 501ft 0kts
02-Oct-18 12:04 35.436622 -119.054332 46 501ft 0kts

Navigation Log

Ident Type
Flight plan parsing failed, navigation log unavailable